Time;durP1;ratioP1;P1;durP2;ratioP2;P2;SDS_P1;SDS_P2;PMS_P1;PMS_P2;Temp;Humidity;BMP_temperature;BMP_pressure;BME280_temperature;BME280_humidity;BME280_pressure;Samples;Min_cycle;Max_cycle;Signal;HPM_P1;HPM_P2
2023/09/18 00:00:11;;;;;;;9.80;8.90;;;;;;;16.40;100.00;99072.73;109876;1245;64053;-69
2023/09/18 00:02:58;;;;;;;10.10;9.20;;;;;;;16.38;100.00;99074.51;109807;1246;58983;-68
2023/09/18 00:05:25;;;;;;;9.90;9.00;;;;;;;16.36;100.00;99075.04;110242;1246;59006;-69
2023/09/18 00:07:52;;;;;;;9.50;8.60;;;;;;;16.35;100.00;99074.42;110258;1246;66037;-69
2023/09/18 00:10:18;;;;;;;9.50;8.60;;;;;;;16.35;100.00;99070.00;110208;1247;59426;-69
2023/09/18 00:12:45;;;;;;;10.20;8.40;;;;;;;16.33;100.00;99070.35;110236;1245;62671;-68
2023/09/18 00:15:11;;;;;;;11.10;9.50;;;;;;;16.30;100.00;99071.14;110224;1246;58919;-68
2023/09/18 00:17:38;;;;;;;9.80;8.80;;;;;;;16.26;100.00;99067.55;109780;1246;59087;-68
2023/09/18 00:20:06;;;;;;;9.30;8.50;;;;;;;16.23;100.00;99064.79;110232;1246;59012;-68
2023/09/18 00:22:33;;;;;;;9.80;8.90;;;;;;;16.20;100.00;99066.95;110243;1246;59251;-68
2023/09/18 00:25:01;;;;;;;11.00;9.50;;;;;;;16.17;100.00;99062.09;110239;1245;64058;-68
2023/09/18 00:27:27;;;;;;;11.20;9.10;;;;;;;16.13;100.00;99062.20;109687;1247;59480;-68
2023/09/18 00:29:54;;;;;;;8.80;8.10;;;;;;;16.09;100.00;99063.12;110232;1246;59034;-69
2023/09/18 00:32:21;;;;;;;10.90;9.70;;;;;;;16.03;100.00;99062.73;110278;1246;65736;-69
2023/09/18 00:34:47;;;;;;;11.10;9.60;;;;;;;16.01;100.00;99064.16;110261;1246;60114;-69
2023/09/18 00:37:14;;;;;;;10.30;9.40;;;;;;;16.01;100.00;99065.64;110216;1245;58989;-69
2023/09/18 00:39:42;;;;;;;11.90;9.60;;;;;;;16.00;100.00;99062.35;110257;1246;58908;-69
2023/09/18 00:42:13;;;;;;;11.20;10.10;;;;;;;15.98;100.00;99065.91;109747;1245;59043;-70
2023/09/18 00:44:41;;;;;;;11.50;10.50;;;;;;;15.96;100.00;99065.02;110253;1246;66023;-69
2023/09/18 00:47:08;;;;;;;10.80;9.70;;;;;;;15.95;100.00;99066.51;110271;1247;60661;-70
2023/09/18 00:49:38;;;;;;;11.00;10.00;;;;;;;15.93;100.00;99070.86;110239;1246;62879;-69
2023/09/18 00:52:06;;;;;;;;;;;;;;;15.89;100.00;99065.41;109987;1246;58987;-69
2023/09/18 00:54:34;;;;;;;11.10;10.10;;;;;;;15.87;100.00;99064.23;110257;1246;59016;-69
2023/09/18 00:57:01;;;;;;;12.00;10.60;;;;;;;15.85;100.00;99059.04;110255;1246;64805;-69
2023/09/18 00:59:28;;;;;;;11.40;10.30;;;;;;;15.82;100.00;99060.49;110251;1246;60097;-69
2023/09/18 01:01:54;;;;;;;11.30;10.30;;;;;;;15.79;100.00;99063.92;110227;1246;63742;-69
2023/09/18 01:04:22;;;;;;;12.40;11.20;;;;;;;15.79;100.00;99061.61;110258;1246;58930;-69
2023/09/18 01:06:49;;;;;;;12.80;11.50;;;;;;;15.78;100.00;99060.11;110270;1246;58862;-69
2023/09/18 01:09:19;;;;;;;12.60;11.40;;;;;;;15.78;100.00;99057.76;110270;1246;65796;-68
2023/09/18 01:11:59;;;;;;;12.60;11.50;;;;;;;15.77;100.00;99060.56;110277;1245;59903;-69
2023/09/18 01:14:33;;;;;;;13.20;11.90;;;;;;;15.76;100.00;99050.67;110257;1246;62836;-69
2023/09/18 01:17:05;;;;;;;15.40;12.60;;;;;;;15.77;100.00;99051.64;110246;1246;58966;-69
2023/09/18 01:19:44;;;;;;;14.10;12.60;;;;;;;15.75;100.00;99053.55;110252;1247;59176;-69
2023/09/18 01:22:12;;;;;;;13.00;11.70;;;;;;;15.73;100.00;99055.16;110258;1246;66021;-69
2023/09/18 01:24:40;;;;;;;13.50;11.80;;;;;;;15.71;100.00;99055.91;110219;1246;59085;-69
2023/09/18 01:27:10;;;;;;;13.90;12.60;;;;;;;15.68;100.00;99055.39;110195;1246;64073;-69
2023/09/18 01:29:36;;;;;;;;;;;;;;;15.65;100.00;99055.13;110263;1246;58951;-69
2023/09/18 01:32:03;;;;;;;12.40;11.20;;;;;;;15.59;100.00;99055.25;110246;1245;58954;-69
2023/09/18 01:34:36;;;;;;;13.70;12.40;;;;;;;15.57;100.00;99055.33;110224;1247;66043;-69
2023/09/18 01:37:05;;;;;;;13.70;12.00;;;;;;;15.57;100.00;99054.77;110258;1247;59049;-69
2023/09/18 01:39:34;;;;;;;16.00;13.20;;;;;;;15.58;100.00;99055.04;110211;1246;64132;-69
2023/09/18 01:42:04;;;;;;;15.00;13.60;;;;;;;15.58;100.00;99054.30;110244;1249;59261;-69
2023/09/18 01:44:31;;;;;;;15.00;13.50;;;;;;;15.59;100.00;99052.82;110230;1246;58985;-69
2023/09/18 01:46:59;;;;;;;15.10;13.80;;;;;;;15.61;100.00;99050.89;109763;1246;66168;-68
2023/09/18 01:49:31;;;;;;;14.50;13.30;;;;;;;15.63;100.00;99051.96;110239;1246;60171;-69
2023/09/18 01:51:58;;;;;;;14.50;13.10;;;;;;;15.63;100.00;99053.20;110242;1245;64495;-69
2023/09/18 01:54:25;;;;;;;15.60;14.10;;;;;;;15.63;100.00;99054.25;110187;1247;59098;-69
2023/09/18 01:56:53;;;;;;;15.00;13.60;;;;;;;15.63;100.00;99055.16;109713;1246;59102;-69
2023/09/18 01:59:20;;;;;;;14.30;12.90;;;;;;;15.62;100.00;99052.17;109945;1247;64822;-68
2023/09/18 02:01:47;;;;;;;15.20;13.80;;;;;;;15.62;100.00;99053.46;110307;1246;58966;-69
2023/09/18 02:04:14;;;;;;;14.40;13.10;;;;;;;15.63;100.00;99048.92;110287;1246;64074;-69
2023/09/18 02:06:40;;;;;;;15.00;13.60;;;;;;;15.66;100.00;99049.13;110258;1246;59234;-70
2023/09/18 02:09:08;;;;;;;14.70;13.10;;;;;;;15.66;100.00;99047.17;110260;1245;59205;-69
2023/09/18 02:11:38;;;;;;;15.90;14.10;;;;;;;15.67;100.00;99046.95;110284;1246;65176;-69
2023/09/18 02:14:05;;;;;;;16.10;14.60;;;;;;;15.66;100.00;99046.12;110279;1246;58959;-69
2023/09/18 02:16:37;;;;;;;15.60;14.10;;;;;;;15.64;100.00;99045.19;110270;1245;64558;-69
2023/09/18 02:19:04;;;;;;;15.90;14.40;;;;;;;15.64;100.00;99047.00;110251;1246;58954;-69
2023/09/18 02:21:31;;;;;;;17.20;15.70;;;;;;;15.63;100.00;99043.84;110272;1246;58960;-69
2023/09/18 02:23:57;;;;;;;15.40;13.80;;;;;;;15.62;100.00;99044.11;110282;1247;65999;-69
2023/09/18 02:26:24;;;;;;;16.50;15.00;;;;;;;15.60;100.00;99047.88;110281;1246;60125;-69
2023/09/18 02:28:53;;;;;;;16.80;15.30;;;;;;;15.58;100.00;99046.62;110228;1246;62515;-69
2023/09/18 02:31:21;;;;;;;15.50;14.10;;;;;;;15.56;100.00;99047.54;110303;1246;58985;-69
2023/09/18 02:33:47;;;;;;;16.60;15.10;;;;;;;15.54;100.00;99042.31;110245;1245;59138;-69
2023/09/18 02:36:14;;;;;;;15.80;14.40;;;;;;;15.54;100.00;99043.89;110253;1246;65856;-69
2023/09/18 02:38:40;;;;;;;16.70;15.20;;;;;;;15.54;100.00;99041.01;110253;1247;59713;-69
2023/09/18 02:41:07;;;;;;;15.20;13.80;;;;;;;15.55;100.00;99038.63;110261;1246;62608;-69
2023/09/18 02:43:34;;;;;;;16.00;14.20;;;;;;;15.55;100.00;99037.38;110250;1247;58953;-69
2023/09/18 02:46:00;;;;;;;15.60;14.10;;;;;;;15.56;100.00;99037.49;110304;1247;59033;-69
2023/09/18 02:48:27;;;;;;;15.50;13.70;;;;;;;15.54;100.00;99038.36;110290;1247;66780;-69
2023/09/18 02:50:53;;;;;;;16.70;15.10;;;;;;;15.52;100.00;99041.08;110250;1247;59981;-69
2023/09/18 02:53:22;;;;;;;15.00;13.50;;;;;;;15.51;100.00;99044.15;110274;1246;64158;-69
2023/09/18 02:55:51;;;;;;;15.70;14.10;;;;;;;15.49;100.00;99040.61;110289;1245;59048;-70
2023/09/18 02:58:19;;;;;;;14.50;13.20;;;;;;;15.48;100.00;99035.34;110277;1246;59482;-70
2023/09/18 03:00:47;;;;;;;15.40;14.10;;;;;;;15.47;100.00;99039.34;110282;1246;64508;-70
2023/09/18 03:03:14;;;;;;;15.20;13.70;;;;;;;15.43;100.00;99038.44;110298;1247;59868;-70
2023/09/18 03:05:42;;;;;;;16.10;14.50;;;;;;;15.42;100.00;99034.75;109767;1245;63843;-70
2023/09/18 03:08:10;;;;;;;15.60;14.10;;;;;;;15.40;100.00;99033.54;109912;1248;58946;-70
2023/09/18 03:10:40;;;;;;;16.30;14.80;;;;;;;15.35;100.00;99032.67;110259;1246;59056;-69
2023/09/18 03:13:08;;;;;;;15.90;14.30;;;;;;;15.32;100.00;99028.46;110208;1247;66021;-69
2023/09/18 03:15:35;;;;;;;15.80;14.30;;;;;;;15.28;100.00;99027.51;110267;1247;59164;-69
2023/09/18 03:18:03;;;;;;;17.00;15.30;;;;;;;15.24;100.00;99024.48;110204;1245;64105;-70
2023/09/18 03:20:31;;;;;;;17.00;15.20;;;;;;;15.21;100.00;99022.02;109785;1246;59043;-70
2023/09/18 03:22:59;;;;;;;17.90;16.20;;;;;;;15.20;100.00;99020.39;110259;1246;59038;-70
2023/09/18 03:25:26;;;;;;;16.20;14.10;;;;;;;15.20;100.00;99019.66;109829;1246;64911;-69
2023/09/18 03:27:56;;;;;;;16.50;14.90;;;;;;;15.19;100.00;99018.83;109780;1246;59804;-69
2023/09/18 03:30:24;;;;;;;17.90;16.10;;;;;;;15.18;100.00;99020.58;110227;1246;62922;-69
2023/09/18 03:32:51;;;;;;;17.60;15.90;;;;;;;15.16;100.00;99024.80;109753;1246;59055;-69
2023/09/18 03:35:19;;;;;;;19.90;15.90;;;;;;;15.13;100.00;99022.17;110288;1246;58967;-69
2023/09/18 03:37:53;;;;;;;17.80;16.10;;;;;;;15.11;100.00;99019.65;110260;1246;66057;-70
2023/09/18 03:40:22;;;;;;;17.90;16.30;;;;;;;15.10;100.00;99012.21;109752;1246;59227;-69
2023/09/18 03:42:49;;;;;;;18.30;16.50;;;;;;;15.09;100.00;99012.70;110238;1246;62844;-69
2023/09/18 03:45:18;;;;;;;18.70;16.70;;;;;;;15.07;100.00;99007.17;110255;1247;58924;-69
2023/09/18 03:47:45;;;;;;;18.40;16.50;;;;;;;15.03;100.00;99006.37;110271;1246;59887;-69
2023/09/18 03:50:12;;;;;;;18.20;16.30;;;;;;;15.02;100.00;99002.05;110297;1246;66093;-69
2023/09/18 03:52:39;;;;;;;19.50;17.00;;;;;;;15.01;100.00;99004.08;110234;1248;59184;-70
2023/09/18 03:55:06;;;;;;;18.30;16.50;;;;;;;15.00;100.00;99002.52;110215;1247;72943;-69
2023/09/18 03:57:33;;;;;;;18.10;16.30;;;;;;;14.98;100.00;99000.59;110219;1246;59199;-69
2023/09/18 04:00:00;;;;;;;17.30;15.60;;;;;;;14.94;100.00;99001.06;110266;1247;59264;-69
2023/09/18 04:02:26;;;;;;;18.50;16.80;;;;;;;14.90;100.00;98999.59;110252;1246;65770;-69
2023/09/18 04:04:54;;;;;;;18.50;16.70;;;;;;;14.88;100.00;98995.87;109839;1246;59194;-69
2023/09/18 04:07:20;;;;;;;18.60;16.90;;;;;;;14.85;100.00;98988.93;110256;1246;63716;-70
2023/09/18 04:09:47;;;;;;;18.80;16.80;;;;;;;14.82;100.00;98983.98;110233;1246;58971;-70
2023/09/18 04:12:14;;;;;;;17.70;16.00;;;;;;;14.81;100.00;98981.98;110231;1246;59262;-70
2023/09/18 04:14:41;;;;;;;17.10;15.50;;;;;;;14.79;100.00;98982.50;110243;1247;65059;-70
2023/09/18 04:17:07;;;;;;;20.70;17.60;;;;;;;14.77;100.00;98989.99;110228;1247;58965;-69
2023/09/18 04:19:34;;;;;;;18.20;16.50;;;;;;;14.74;100.00;98986.64;110195;1246;62513;-69
2023/09/18 04:22:00;;;;;;;17.70;16.00;;;;;;;14.74;100.00;98987.39;110235;1247;58935;-69
2023/09/18 04:24:27;;;;;;;18.60;16.70;;;;;;;14.74;100.00;98983.66;110275;1246;59184;-69
2023/09/18 04:26:53;;;;;;;18.70;16.80;;;;;;;14.74;100.00;98984.40;110216;1247;67132;-67
2023/09/18 04:29:20;;;;;;;19.30;17.20;;;;;;;14.74;100.00;98982.96;109776;1246;61393;-66
2023/09/18 04:31:48;;;;;;;19.40;17.40;;;;;;;14.75;100.00;98983.91;110241;1247;63725;-66
2023/09/18 04:34:14;;;;;;;19.60;17.70;;;;;;;14.78;100.00;98979.36;110239;1246;58963;-67
2023/09/18 04:36:41;;;;;;;19.00;17.10;;;;;;;14.81;100.00;98983.41;110211;1246;58993;-67
2023/09/18 04:39:09;;;;;;;19.40;17.50;;;;;;;14.84;100.00;98982.98;110282;1247;66386;-67
2023/09/18 04:41:36;;;;;;;19.40;17.50;;;;;;;14.88;100.00;98983.56;109957;1247;59982;-67
2023/09/18 04:44:02;;;;;;;19.20;17.20;;;;;;;14.92;100.00;98980.20;110222;1247;64068;-67
2023/09/18 04:46:29;;;;;;;20.10;18.10;;;;;;;15.02;100.00;98979.66;109741;1246;59083;-67
2023/09/18 04:48:56;;;;;;;18.40;16.50;;;;;;;15.23;100.00;98973.74;110249;1246;58949;-66
2023/09/18 04:51:23;;;;;;;18.50;16.70;;;;;;;15.44;100.00;98973.74;110281;1247;64482;-67
2023/09/18 04:53:51;;;;;;;17.50;15.70;;;;;;;15.65;100.00;98967.23;110278;1246;59327;-66
2023/09/18 04:56:19;;;;;;;17.20;15.30;;;;;;;15.86;100.00;98967.13;110237;1247;63738;-67
2023/09/18 04:58:45;;;;;;;16.50;14.90;;;;;;;16.09;100.00;98969.58;110230;1246;59260;-67
2023/09/18 05:01:12;;;;;;;15.80;14.20;;;;;;;16.31;100.00;98966.67;110227;1249;59110;-67
2023/09/18 05:03:39;;;;;;;14.30;13.00;;;;;;;16.50;100.00;98965.88;110281;1246;64555;-66
2023/09/18 05:06:06;;;;;;;14.30;12.90;;;;;;;16.69;100.00;98966.60;110224;1246;60087;-67
2023/09/18 05:08:33;;;;;;;13.60;12.20;;;;;;;16.86;100.00;98966.27;110276;1247;62855;-67
2023/09/18 05:11:00;;;;;;;13.20;12.10;;;;;;;17.04;100.00;98966.80;110202;1246;59308;-67
2023/09/18 05:13:27;;;;;;;13.80;12.50;;;;;;;17.22;100.00;98963.67;110244;1247;59079;-67
2023/09/18 05:15:53;;;;;;;12.70;11.50;;;;;;;17.38;100.00;98962.27;110263;1248;65931;-67
2023/09/18 05:18:20;;;;;;;12.10;10.90;;;;;;;17.54;100.00;98961.67;109846;1247;59189;-67
2023/09/18 05:20:47;;;;;;;13.00;11.70;;;;;;;17.63;100.00;98969.30;110222;1247;64935;-67
2023/09/18 05:23:13;;;;;;;12.50;11.10;;;;;;;17.75;100.00;98968.63;110270;1247;58969;-67
2023/09/18 05:25:42;;;;;;;12.60;11.30;;;;;;;17.87;100.00;98972.88;110283;1246;59054;-67
2023/09/18 05:28:08;;;;;;;13.40;11.30;;;;;;;18.01;100.00;98966.44;110324;1244;65756;-67
2023/09/18 05:30:38;;;;;;;11.80;10.40;;;;;;;18.16;100.00;98962.89;110199;1246;60109;-67
2023/09/18 05:33:06;;;;;;;12.80;10.90;;;;;;;18.32;100.00;98956.39;110269;1245;64070;-67
2023/09/18 05:35:36;;;;;;;11.50;10.40;;;;;;;18.50;100.00;98957.30;110249;1249;59009;-67
2023/09/18 05:38:04;;;;;;;;;;;;;;;18.64;100.00;98956.23;110300;1245;59011;-67
2023/09/18 05:40:31;;;;;;;17.80;11.20;;;;;;;18.78;100.00;98954.17;110344;1244;65721;-67
2023/09/18 05:42:58;;;;;;;11.50;10.30;;;;;;;18.92;100.00;98948.45;110279;1244;60156;-67
2023/09/18 05:45:26;;;;;;;11.90;9.90;;;;;;;19.03;100.00;98948.67;110287;1245;62829;-66
2023/09/18 05:47:53;;;;;;;12.80;10.50;;;;;;;19.15;100.00;98946.25;110241;1244;59104;-67
2023/09/18 05:50:20;;;;;;;11.30;10.30;;;;;;;19.09;100.00;98942.88;110300;1244;61500;-67
2023/09/18 05:52:48;;;;;;;13.80;11.00;;;;;;;18.99;100.00;98939.42;110300;1244;66031;-67
2023/09/18 05:55:15;;;;;;;15.50;10.50;;;;;;;18.96;100.00;98935.59;110304;1244;61369;-67
2023/09/18 05:57:42;;;;;;;11.60;10.50;;;;;;;18.93;100.00;98927.74;109834;1245;64030;-68
2023/09/18 06:00:13;;;;;;;12.30;11.10;;;;;;;18.88;100.00;98930.77;110026;1245;59032;-68
2023/09/18 06:02:40;;;;;;;13.30;11.60;;;;;;;18.76;100.00;98925.71;110283;1244;58820;-68
2023/09/18 06:05:11;;;;;;;12.70;11.40;;;;;;;18.69;100.00;98924.10;109795;1244;64880;-67
2023/09/18 06:07:38;;;;;;;13.60;12.20;;;;;;;18.75;100.00;98923.64;110338;1244;59080;-67
2023/09/18 06:10:05;;;;;;;12.60;11.50;;;;;;;18.87;100.00;98926.74;110308;1244;62813;-67
2023/09/18 06:12:32;;;;;;;12.50;11.20;;;;;;;18.96;100.00;98922.94;110299;1244;58926;-67
2023/09/18 06:14:58;;;;;;;12.30;11.10;;;;;;;19.02;100.00;98924.45;110320;1244;58878;-68
2023/09/18 06:17:25;;;;;;;12.30;10.90;;;;;;;19.02;100.00;98928.61;110361;1246;67009;-67
2023/09/18 06:19:52;;;;;;;13.20;11.80;;;;;;;18.99;100.00;98924.45;110300;1244;58982;-67
2023/09/18 06:22:18;;;;;;;13.30;12.20;;;;;;;19.02;100.00;98924.36;110314;1245;63733;-68
2023/09/18 06:24:45;;;;;;;13.00;11.60;;;;;;;19.04;100.00;98923.23;110267;1248;59025;-67
2023/09/18 06:27:12;;;;;;;13.50;12.30;;;;;;;19.01;100.00;98924.18;110310;1244;58878;-67
2023/09/18 06:29:39;;;;;;;14.40;12.80;;;;;;;18.99;100.00;98922.25;110289;1245;66012;-68
2023/09/18 06:32:06;;;;;;;13.60;12.40;;;;;;;19.05;100.00;98920.42;110311;1244;59119;-67
2023/09/18 06:34:32;;;;;;;14.50;13.20;;;;;;;19.13;100.00;98917.65;110270;1244;64173;-68
2023/09/18 06:36:59;;;;;;;13.70;12.30;;;;;;;19.16;100.00;98914.59;109752;1245;59076;-67
2023/09/18 06:39:26;;;;;;;13.70;12.30;;;;;;;19.17;100.00;98917.37;109780;1245;58952;-66
2023/09/18 06:41:52;;;;;;;14.00;12.50;;;;;;;19.22;100.00;98917.42;110287;1249;65967;-66
2023/09/18 06:44:19;;;;;;;14.50;12.80;;;;;;;19.31;100.00;98916.27;110282;1244;58975;-66
2023/09/18 06:46:45;;;;;;;13.70;12.40;;;;;;;19.42;100.00;98912.58;110271;1244;62935;-66
2023/09/18 06:49:12;;;;;;;13.60;12.40;;;;;;;19.51;100.00;98914.31;110264;1245;59163;-67
2023/09/18 06:51:39;;;;;;;13.20;11.90;;;;;;;19.64;100.00;98913.91;110150;1244;163153;-67
2023/09/18 06:54:05;;;;;;;14.30;13.00;;;;;;;19.78;100.00;98911.68;109790;1244;65017;-67
2023/09/18 06:56:32;;;;;;;13.20;12.00;;;;;;;19.88;100.00;98914.80;110293;1244;59040;-67
2023/09/18 06:58:58;;;;;;;12.90;11.90;;;;;;;19.99;100.00;98911.41;110285;1244;62476;-67
2023/09/18 07:01:25;;;;;;;13.30;12.00;;;;;;;20.08;100.00;98912.45;110260;1245;59053;-67
2023/09/18 07:03:52;;;;;;;13.20;12.10;;;;;;;20.13;100.00;98913.73;110297;1247;59039;-67
2023/09/18 07:06:20;;;;;;;12.10;10.90;;;;;;;20.22;100.00;98915.23;110310;1244;66058;-67
2023/09/18 07:08:49;;;;;;;13.50;12.00;;;;;;;20.32;100.00;98915.06;109882;1244;59184;-66
2023/09/18 07:11:16;;;;;;;13.80;12.40;;;;;;;20.33;100.00;98919.49;110270;1244;64164;-67
2023/09/18 07:13:44;;;;;;;15.10;13.50;;;;;;;20.35;100.00;98915.46;110269;1248;58959;-67
2023/09/18 07:16:11;;;;;;;13.90;12.60;;;;;;;20.42;100.00;98910.54;110345;1245;58971;-66
2023/09/18 07:18:37;;;;;;;13.80;12.40;;;;;;;20.51;100.00;98909.97;110279;1247;65551;-67
2023/09/18 07:21:04;;;;;;;14.00;12.50;;;;;;;20.62;100.00;98913.50;110336;1244;59833;-66
2023/09/18 07:23:31;;;;;;;13.60;12.30;;;;;;;20.73;100.00;98912.79;110320;1245;63816;-67
2023/09/18 07:25:57;;;;;;;13.10;12.00;;;;;;;20.80;100.00;98913.82;110277;1244;59589;-68
2023/09/18 07:28:25;;;;;;;13.80;12.60;;;;;;;20.88;100.00;98914.70;110286;1249;59015;-67
2023/09/18 07:30:51;;;;;;;16.10;12.90;;;;;;;21.01;100.00;98911.54;110337;1244;66033;-67
2023/09/18 07:33:20;;;;;;;13.90;12.60;;;;;;;21.15;100.00;98904.79;110016;1244;59990;-67
2023/09/18 07:35:47;;;;;;;13.80;12.60;;;;;;;21.31;100.00;98903.73;110335;1244;64168;-67
2023/09/18 07:38:15;;;;;;;13.50;11.80;;;;;;;21.44;100.00;98902.70;110235;1245;58987;-67
2023/09/18 07:40:42;;;;;;;13.00;11.90;;;;;;;21.58;100.00;98902.58;110288;1245;59276;-68
2023/09/18 07:43:08;;;;;;;14.20;12.90;;;;;;;21.71;100.00;98903.91;110267;1245;66056;-66
2023/09/18 07:45:35;;;;;;;13.00;11.90;;;;;;;21.77;100.00;98900.23;110335;1245;60621;-66
2023/09/18 07:48:02;;;;;;;13.80;12.60;;;;;;;21.89;100.00;98898.06;110283;1244;62517;-67
2023/09/18 07:50:28;;;;;;;13.70;12.50;;;;;;;22.00;100.00;98891.90;109773;1253;59614;-67
2023/09/18 07:52:55;;;;;;;14.70;12.10;;;;;;;22.10;100.00;98888.34;110360;1245;59245;-67
2023/09/18 07:55:21;;;;;;;12.50;11.40;;;;;;;22.23;100.00;98882.25;110321;1244;66043;-68
2023/09/18 07:57:49;;;;;;;13.80;12.60;;;;;;;22.33;100.00;98878.90;110254;1244;59056;-68
2023/09/18 08:00:16;;;;;;;13.10;11.90;;;;;;;22.43;100.00;98875.70;110265;1245;63846;-67
2023/09/18 08:02:43;;;;;;;13.20;12.10;;;;;;;22.54;100.00;98880.48;109894;1244;59078;-67
2023/09/18 08:05:10;;;;;;;13.60;12.40;;;;;;;22.66;100.00;98878.69;109844;1245;59442;-67
2023/09/18 08:07:37;;;;;;;14.50;13.20;;;;;;;22.75;100.00;98876.61;110311;1244;66125;-67
2023/09/18 08:10:08;;;;;;;13.80;12.60;;;;;;;22.84;100.00;98878.52;110310;1244;60130;-68
2023/09/18 08:12:35;;;;;;;14.70;13.30;;;;;;;22.96;100.00;98883.84;109804;1244;64366;-68
2023/09/18 08:15:02;;;;;;;13.30;12.20;;;;;;;23.08;100.00;98883.36;110289;1244;58948;-68
2023/09/18 08:17:29;;;;;;;14.20;12.90;;;;;;;23.16;100.00;98885.75;110314;1244;58991;-68
2023/09/18 08:19:55;;;;;;;15.10;13.30;;;;;;;23.22;100.00;98883.44;110278;1244;65692;-68
2023/09/18 08:22:22;;;;;;;14.20;12.90;;;;;;;23.30;100.00;98883.02;110349;1244;59974;-67
2023/09/18 08:24:48;;;;;;;13.30;12.10;;;;;;;23.42;100.00;98876.70;110310;1244;62520;-68
2023/09/18 08:27:18;;;;;;;14.60;13.30;;;;;;;23.54;100.00;98874.27;110301;1245;58937;-68
2023/09/18 08:29:46;;;;;;;14.00;12.80;;;;;;;23.64;100.00;98871.46;110321;1244;58987;-68
2023/09/18 08:32:13;;;;;;;13.40;12.30;;;;;;;23.68;100.00;98872.64;110283;1244;67109;-68
2023/09/18 08:34:40;;;;;;;14.40;13.20;;;;;;;23.74;100.00;98873.33;110308;1244;60132;-68
2023/09/18 08:37:06;;;;;;;13.10;12.10;;;;;;;23.85;100.00;98871.18;109834;1244;62825;-68
2023/09/18 08:39:36;;;;;;;13.30;12.00;;;;;;;24.00;100.00;98865.83;110263;1244;58966;-68
2023/09/18 08:42:09;;;;;;;13.50;12.30;;;;;;;24.10;100.00;98861.36;110329;1244;59039;-68
2023/09/18 08:44:38;;;;;;;14.10;12.80;;;;;;;24.14;100.00;98860.33;110277;1244;64851;-68
2023/09/18 08:47:08;;;;;;;13.10;12.00;;;;;;;24.15;100.00;98858.40;109770;1244;59469;-67
2023/09/18 08:49:35;;;;;;;14.60;13.30;;;;;;;24.21;100.00;98858.55;110303;1244;62833;-68
2023/09/18 08:52:02;;;;;;;13.70;12.50;;;;;;;24.28;100.00;98856.05;110262;1244;59089;-68
2023/09/18 08:54:29;;;;;;;14.60;13.20;;;;;;;24.38;100.00;98856.89;110279;1244;58966;-68
2023/09/18 08:56:56;;;;;;;14.20;13.10;;;;;;;24.46;100.00;98856.68;110340;1244;64881;-69
2023/09/18 08:59:25;;;;;;;13.30;12.10;;;;;;;24.58;100.00;98852.98;109896;1250;59058;-68
2023/09/18 09:01:51;;;;;;;22.70;14.30;;;;;;;24.70;100.00;98846.67;110263;1244;63745;-67
2023/09/18 09:04:18;;;;;;;14.20;13.10;;;;;;;24.86;100.00;98836.44;110284;1244;59018;-67
2023/09/18 09:06:44;;;;;;;14.80;13.50;;;;;;;25.01;100.00;98835.98;110317;1249;59011;-67
2023/09/18 09:09:12;;;;;;;14.60;13.40;;;;;;;25.10;100.00;98835.14;110250;1244;64859;-68
2023/09/18 09:11:39;;;;;;;15.00;13.80;;;;;;;25.24;100.00;98825.04;110309;1244;59018;-67
2023/09/18 09:14:21;;;;;;;15.10;13.90;;;;;;;25.39;100.00;98823.40;110345;1244;64134;-68
2023/09/18 09:16:49;;;;;;;14.00;12.90;;;;;;;25.52;100.00;98822.46;110250;1244;59089;-68
2023/09/18 09:19:17;;;;;;;13.70;12.70;;;;;;;25.61;100.00;98826.45;110298;1244;58982;-67
2023/09/18 09:21:44;;;;;;;13.70;12.70;;;;;;;25.73;100.00;98821.28;110323;1244;65270;-67
2023/09/18 09:24:14;;;;;;;14.60;13.50;;;;;;;25.86;100.00;98822.58;110314;1244;61097;-67
2023/09/18 09:26:41;;;;;;;14.10;13.10;;;;;;;25.97;100.00;98826.05;110235;1244;65310;-67
2023/09/18 09:29:17;;;;;;;13.20;12.20;;;;;;;26.07;100.00;98820.70;110264;1244;58954;-67
2023/09/18 09:31:45;;;;;;;13.00;12.10;;;;;;;26.18;100.00;98814.33;109910;1244;59068;-68
2023/09/18 09:34:23;;;;;;;17.60;12.20;;;;;;;26.30;100.00;98811.27;109913;1244;66504;-67
2023/09/18 09:36:54;;;;;;;13.50;12.40;;;;;;;26.38;100.00;98801.84;110339;1244;60166;-67
2023/09/18 09:39:26;;;;;;;12.10;11.10;;;;;;;26.44;100.00;98806.08;109782;1244;64198;-67
2023/09/18 09:41:52;;;;;;;12.50;11.30;;;;;;;26.49;100.00;98804.73;110304;1244;58945;-67
2023/09/18 09:44:20;;;;;;;13.10;12.00;;;;;;;26.59;100.00;98805.89;110297;1244;58944;-68
2023/09/18 09:46:51;;;;;;;12.10;11.20;;;;;;;26.71;100.00;98800.00;110311;1244;64474;-67
2023/09/18 09:49:19;;;;;;;12.10;11.00;;;;;;;26.81;100.00;98796.75;110350;1247;59973;-68
2023/09/18 09:51:46;;;;;;;11.90;10.90;;;;;;;26.88;100.00;98792.66;110314;1244;63839;-68
2023/09/18 09:54:13;;;;;;;11.50;10.70;;;;;;;26.92;100.00;98785.63;110283;1244;58942;-69
2023/09/18 09:56:50;;;;;;;11.20;10.40;;;;;;;27.00;100.00;98781.27;109924;1244;59017;-68
2023/09/18 09:59:19;;;;;;;11.50;10.60;;;;;;;27.09;100.00;98776.72;110301;1244;66113;-68
2023/09/18 10:01:48;;;;;;;11.20;10.20;;;;;;;27.16;100.00;98775.33;110338;1244;59050;-68
2023/09/18 10:04:17;;;;;;;10.40;9.60;;;;;;;27.22;100.00;98774.98;110355;1244;63856;-68
2023/09/18 10:07:07;;;;;;;10.40;9.70;;;;;;;27.27;100.00;98775.89;110275;1244;59227;-68
2023/09/18 10:09:41;;;;;;;11.00;10.20;;;;;;;27.37;100.00;98776.10;110352;1244;58951;-67
2023/09/18 10:12:13;;;;;;;10.60;9.80;;;;;;;27.44;100.00;98775.27;110302;1244;66073;-69
2023/09/18 10:14:42;;;;;;;10.10;9.40;;;;;;;27.45;100.00;98773.55;110347;1244;60341;-69
2023/09/18 10:17:19;;;;;;;10.40;9.60;;;;;;;27.50;100.00;98769.10;110286;1244;64041;-69
2023/09/18 10:19:59;;;;;;;10.00;9.20;;;;;;;27.59;100.00;98761.09;110293;1244;59054;-67
2023/09/18 10:22:37;;;;;;;10.90;9.50;;;;;;;27.68;100.00;98759.27;110355;1244;58847;-68
2023/09/18 10:25:12;;;;;;;10.60;9.80;;;;;;;27.76;100.00;98756.95;110284;1244;64872;-68
2023/09/18 10:27:40;;;;;;;10.90;10.00;;;;;;;27.82;100.00;98751.31;109945;1244;59372;-68
2023/09/18 10:30:11;;;;;;;9.60;8.90;;;;;;;27.90;100.00;98751.09;110277;1244;62603;-69
2023/09/18 10:32:41;;;;;;;11.40;10.00;;;;;;;27.93;100.00;98751.75;110292;1244;58933;-68
2023/09/18 10:35:08;;;;;;;10.00;9.20;;;;;;;27.90;100.00;98751.73;110321;1244;59014;-69
2023/09/18 10:37:36;;;;;;;10.00;9.00;;;;;;;27.85;100.00;98748.23;110304;1244;64833;-69
2023/09/18 10:40:05;;;;;;;10.10;9.30;;;;;;;27.80;100.00;98745.16;109825;1244;59052;-68
2023/09/18 10:42:42;;;;;;;10.20;9.30;;;;;;;27.76;100.00;98745.12;110326;1244;62822;-68
2023/09/18 10:45:11;;;;;;;10.10;9.20;;;;;;;27.75;100.00;98742.89;110330;1244;58950;-68
2023/09/18 10:47:40;;;;;;;10.10;9.30;;;;;;;27.76;100.00;98739.65;110343;1244;58885;-68
2023/09/18 10:50:08;;;;;;;9.80;8.90;;;;;;;27.81;100.00;98737.57;110317;1244;64776;-68
2023/09/18 10:52:36;;;;;;;9.80;9.00;;;;;;;27.86;100.00;98740.07;110360;1244;59803;-68
2023/09/18 10:55:04;;;;;;;9.50;8.80;;;;;;;27.91;100.00;98738.45;110309;1244;64041;-68
2023/09/18 10:57:38;;;;;;;9.80;9.00;;;;;;;27.95;100.00;98735.88;110304;1244;58942;-68
2023/09/18 11:00:13;;;;;;;9.20;8.60;;;;;;;27.96;100.00;98731.45;110325;1244;58937;-68
2023/09/18 11:02:40;;;;;;;9.60;8.80;;;;;;;28.03;100.00;98729.59;110270;1244;65867;-68
2023/09/18 11:05:07;;;;;;;9.10;8.50;;;;;;;28.12;100.00;98725.22;109821;1244;59954;-69
2023/09/18 11:07:34;;;;;;;9.60;8.80;;;;;;;28.17;100.00;98719.91;110326;1244;64479;-68